Latest Weather Observations for Goulburn Airport

IDN60801

Issued at 12:32 pm EDT Monday 8 February 2016 (issued every 30 minutes, with the page automatically refreshed every 10 minutes)

About weather observations | Map of weather stations | Latest weather observations for NSW | Other Formats
Station Details ID: 070330 Name: GOULBURN AIRPORT AWS Lat: -34.81 Lon: 149.73 Height: 640.0 m
Data from the previous 72 hours. | See also: Recent months at Goulburn Airport
Date/Time
EDT
Temp
°C
App
Temp
°C
Dew
Point
Rel
Hum
%
Delta-T
°C
Wind Press
QNH
hPa
Press
MSL
hPa
Rain
since 9 am
mm
Dir
 
Spd
km/h
Gust
km/h
Spd
kts
Gust
kts
08/12:30pm 25.2 21.5 7.8 33 9.5 SE 17 24 9 13 1021.2 1018.5 0.0
08/12:00pm 24.5 22.6 11.8 45 7.4 S 13 22 7 12 1021.4 1018.8 0.0
08/11:30am 22.9 22.3 13.4 55 5.7 S 9 15 5 8 1021.8 1019.1 0.0
08/11:00am 21.6 21.0 15.7 69 3.6 SE 13 17 7 9 1021.9 1019.2 0.0
08/10:30am 19.3 20.0 15.6 79 2.3 WSW 6 9 3 5 1022.0 1019.3 0.0
08/10:00am 17.8 19.0 16.0 89 1.1 SE 4 7 2 4 1021.9 1019.2 0.0
08/09:58am 17.5 18.7 15.8 90 1.0 ESE 4 7 2 4 1022.0 1019.3 0.0
08/09:30am 15.8 16.2 14.7 93 0.6 NE 6 7 3 4 1021.9 1019.2 0.0
08/09:00am 15.1 15.3 14.8 98 0.2 WNW 7 11 4 6 1021.9 1019.2 0.0
08/08:30am 14.9 14.7 14.7 99 0.1 W 9 9 5 5 1021.9 1019.2 0.0
08/08:00am 14.6 14.9 14.4 99 0.1 NNW 6 9 3 5 1021.8 1019.1 0.0
08/07:30am 14.4 14.6 14.2 99 0.1 NNW 6 9 3 5 1021.3 1018.7 0.0
08/07:00am 14.3 14.8 14.1 99 0.1 W 4 9 2 5 1021.1 1018.4 0.0
08/06:30am 14.2 15.1 13.9 98 0.2 NNE 2 6 1 3 1021.0 1018.3 0.0
08/06:00am 14.3 14.5 14.1 99 0.1 NNW 6 9 3 5 1020.8 1018.1 0.0
08/05:30am 14.1 14.5 13.8 98 0.2 NNW 4 11 2 6 1020.7 1018.0 0.0
08/05:00am 13.8 14.9 13.5 98 0.2 CALM 0 0 0 0 1020.7 1018.0 0.0
08/04:30am 12.6 13.3 12.3 98 0.2 CALM 0 0 0 0 1020.6 1017.9 0.0
08/04:00am 11.8 12.2 11.3 97 0.3 CALM 0 0 0 0 1020.6 1017.9 0.0
08/03:30am 10.9 11.0 10.1 95 0.4 CALM 0 0 0 0 1020.7 1018.0 0.0
08/03:19am 10.8 10.9 10.0 95 0.4 CALM 0 0 0 0 1020.7 1018.0 0.0
08/03:00am 11.6 11.9 10.8 95 0.4 CALM 0 0 0 0 1020.7 1018.0 0.0
08/02:30am 11.5 11.3 10.6 94 0.5 SW 2 7 1 4 1020.9 1018.2 0.0
08/02:00am 12.5 11.7 11.7 95 0.4 SSW 7 9 4 5 1021.0 1018.3 0.0
08/01:30am 12.8 13.0 11.9 94 0.5 SSE 2 7 1 4 1021.2 1018.5 0.0
08/01:00am 13.7 12.5 12.8 94 0.5 SSE 11 11 6 6 1021.4 1018.8 0.0
08/12:30am 14.1 13.0 13.0 93 0.6 SSE 11 11 6 6 1021.1 1018.4 0.0
08/12:00am 14.6 13.9 13.3 92 0.7 SSE 9 9 5 5 1021.0 1018.3 0.0
 
Date/Time
EDT
Temp
°C
App
Temp
°C
Dew
Point
Rel
Hum
%
Delta-T
°C
Wind Press
QNH
hPa
Press
MSL
hPa
Rain
since 9 am
mm
Dir
 
Spd
km/h
Gust
km/h
Spd
kts
Gust
kts
07/11:30pm 14.8 16.1 14.0 95 0.5 CALM 0 0 0 0 1020.9 1018.2 0.0
07/11:00pm 14.4 15.3 13.0 91 0.8 CALM 0 0 0 0 1020.8 1018.1 0.0
07/10:30pm 15.1 16.1 13.1 88 1.1 CALM 0 0 0 0 1020.7 1018.0 0.0
07/10:00pm 15.8 16.2 13.6 87 1.3 E 4 9 2 5 1020.6 1017.9 0.0
07/09:30pm 16.5 15.8 13.2 81 1.9 ESE 9 11 5 6 1020.3 1017.6 0.0
07/09:00pm 18.0 18.3 13.5 75 2.6 E 4 6 2 3 1019.9 1017.1 0.0
07/08:30pm 19.2 19.1 13.8 71 3.2 ESE 7 9 4 5 1019.3 1016.6 0.0
07/08:00pm 21.1 19.5 14.0 64 4.2 E 15 22 8 12 1019.0 1016.3 0.0
07/07:30pm 22.7 20.2 14.0 58 5.2 E 20 28 11 15 1018.5 1015.7 0.0
07/07:00pm 24.3 22.1 13.2 50 6.6 ENE 17 24 9 13 1018.1 1015.4 0.0
07/06:30pm 25.1 23.5 11.6 42 7.9 ENE 11 17 6 9 1017.9 1015.2 0.0
07/06:00pm 25.5 23.0 10.9 40 8.4 E 15 19 8 10 1017.6 1014.9 0.0
07/05:30pm 25.3 23.5 10.7 40 8.4 E 11 17 6 9 1017.4 1014.7 0.0
07/05:00pm 25.8 24.1 12.6 44 7.8 SE 13 20 7 11 1017.5 1014.8 0.0
07/04:30pm 25.6 23.7 11.7 42 8.1 SSE 13 20 7 11 1017.5 1014.8 0.0
07/04:00pm 25.6 22.9 11.7 42 8.1 ESE 17 24 9 13 1017.6 1014.9 0.0
07/03:30pm 25.3 25.0 14.4 50 6.7 SSE 9 17 5 9 1017.8 1015.1 0.0
07/03:00pm 25.0 23.6 10.8 41 8.2 NE 9 15 5 8 1018.0 1015.3 0.0
07/02:30pm 24.1 23.5 11.8 46 7.2 NE 6 11 3 6 1018.4 1015.6 0.0
07/02:00pm 23.8 23.0 12.8 50 6.5 SSE 9 17 5 9 1018.6 1015.9 0.0
07/01:30pm 23.1 22.6 12.1 50 6.4 ENE 6 11 3 6 1018.8 1016.1 0.0
07/01:00pm 22.2 21.4 11.6 51 6.1 ENE 7 15 4 8 1019.1 1016.4 0.0
07/12:30pm 21.9 21.2 13.3 58 5.1 NNE 9 15 5 8 1019.4 1016.7 0.0
07/12:00pm 21.2 20.0 12.9 59 4.9 NE 11 19 6 10 1019.7 1017.0 0.0
07/11:30am 20.0 18.7 12.5 62 4.3 N 11 13 6 7 1020.2 1017.5 0.0
07/11:00am 19.4 18.9 12.7 65 3.9 NNW 7 15 4 8 1020.5 1017.8 0.0
07/10:30am 19.1 16.9 12.1 64 4.0 NE 15 20 8 11 1020.5 1017.8 0.0
07/10:00am 18.4 16.8 12.8 70 3.2 ENE 13 19 7 10 1020.6 1017.9 0.0
07/09:30am 17.1 15.1 12.8 76 2.5 NE 15 20 8 11 1020.7 1018.0 0.0
07/09:00am 16.4 15.5 13.7 84 1.6 ESE 11 15 6 8 1020.7 1018.0 0.0
07/08:30am 14.3 13.4 13.8 97 0.3 S 11 13 6 7 1020.8 1018.1 0.0
07/08:00am 13.7 12.7 13.4 98 0.2 SSW 11 13 6 7 1020.6 1017.9 0.0
07/07:30am 13.5 13.2 13.2 98 0.2 SSW 7 9 4 5 1020.4 1017.7 0.0
07/07:00am 13.1 12.7 12.9 99 0.1 SW 7 7 4 4 1020.1 1017.4 0.0
07/06:30am 12.4 11.3 12.1 98 0.2 SSW 9 9 5 5 1019.7 1017.0 0.0
07/06:00am 12.0 10.4 11.7 98 0.2 S 11 15 6 8 1019.5 1016.8 0.0
07/05:30am 12.1 11.0 11.8 98 0.2 S 9 11 5 6 1019.4 1016.7 0.0
07/05:00am 11.3 11.6 10.8 97 0.3 CALM 0 0 0 0 1019.4 1016.7 0.0
07/04:41am 11.7 11.4 11.4 98 0.2 SSW 4 7 2 4 1019.3 1016.6 0.0
07/04:40am 11.8 11.9 11.5 98 0.2 S 2 7 1 4 1019.3 1016.6 0.0
07/04:30am 11.9 12.0 11.6 98 0.2 SSE 2 6 1 3 1019.3 1016.6 0.0
07/04:00am 11.5 10.6 11.2 98 0.2 SE 7 9 4 5 1019.3 1016.6 0.0
07/03:30am 11.4 10.6 10.9 97 0.3 SE 6 9 3 5 1019.3 1016.6 0.0
07/03:00am 11.2 10.3 10.7 97 0.3 SE 6 7 3 4 1019.5 1016.8 0.0
07/02:30am 10.7 9.1 10.1 96 0.3 SSE 9 13 5 7 1019.7 1017.0 0.0
07/02:26am 10.2 8.4 9.4 95 0.4 S 9 13 5 7 1019.9 1017.1 0.0
07/02:00am 10.7 10.8 10.1 96 0.3 CALM 0 0 0 0 1020.0 1017.3 0.0
07/01:30am 11.2 10.7 10.6 96 0.3 W 4 7 2 4 1020.3 1017.6 0.0
07/01:00am 11.3 9.4 10.5 95 0.4 SW 11 15 6 8 1020.5 1017.8 0.0
07/12:30am 11.3 9.7 10.2 93 0.6 S 9 13 5 7 1020.5 1017.8 0.0
07/12:00am 12.3 10.6 11.2 93 0.6 S 11 15 6 8 1020.6 1017.9 0.0
 
Date/Time
EDT
Temp
°C
App
Temp
°C
Dew
Point
Rel
Hum
%
Delta-T
°C
Wind Press
QNH
hPa
Press
MSL
hPa
Rain
since 9 am
mm
Dir
 
Spd
km/h
Gust
km/h
Spd
kts
Gust
kts
06/11:30pm 12.3 10.8 10.5 89 1.0 S 9 11 5 6 1020.7 1018.0 0.0
06/11:00pm 13.7 13.2 11.9 89 1.0 ENE 6 9 3 5 1020.9 1018.2 0.0
06/10:30pm 14.1 12.4 12.3 89 1.0 SE 13 17 7 9 1020.8 1018.1 0.0
06/10:00pm 14.2 13.2 12.2 88 1.1 SE 9 11 5 6 1020.6 1017.9 0.0
06/09:30pm 14.9 13.9 12.2 84 1.5 ESE 9 13 5 7 1020.4 1017.7 0.0
06/09:00pm 16.0 13.7 12.9 82 1.8 E 17 22 9 12 1020.0 1017.3 0.0
06/08:30pm 16.5 14.9 12.7 78 2.2 E 13 17 7 9 1019.6 1016.9 0.0
06/08:00pm 17.0 14.9 12.5 75 2.6 E 15 19 8 10 1019.3 1016.6 0.0
06/07:30pm 18.9 15.9 12.6 67 3.6 E 20 26 11 14 1018.9 1016.2 0.0
06/07:00pm 20.1 17.0 12.3 61 4.5 ESE 20 28 11 15 1018.5 1015.7 0.0
06/06:30pm 21.1 17.9 11.2 53 5.6 ENE 19 26 10 14 1018.1 1015.4 0.0
06/06:00pm 20.3 16.8 11.0 55 5.2 ENE 20 28 11 15 1018.0 1015.3 0.0
06/05:30pm 21.5 18.4 11.5 53 5.7 E 19 24 10 13 1017.9 1015.2 0.0
06/05:00pm 22.4 19.8 12.1 52 6.0 ESE 17 28 9 15 1018.1 1015.4 0.0
06/04:30pm 21.1 17.9 12.0 56 5.3 ESE 20 28 11 15 1018.3 1015.5 0.0
06/04:00pm 20.8 17.5 11.7 56 5.2 E 20 30 11 16 1018.6 1015.9 0.0
06/03:30pm 20.7 17.7 12.4 59 4.8 E 20 26 11 14 1018.8 1016.1 0.0
06/03:00pm 21.2 18.5 11.8 55 5.4 E 17 24 9 13 1018.9 1016.2 0.0
06/02:30pm 21.0 17.6 12.4 58 5.0 E 22 28 12 15 1019.2 1016.5 0.0
06/02:00pm 21.2 18.7 12.3 57 5.2 E 17 28 9 15 1019.5 1016.8 0.0
06/01:30pm 20.4 17.4 12.4 60 4.6 ESE 20 28 11 15 1019.9 1017.1 0.0
06/01:00pm 20.1 17.0 12.3 61 4.5 E 20 28 11 15 1020.1 1017.4 0.0
06/12:30pm 20.6 17.2 12.6 60 4.7 E 22 26 12 14 1020.1 1017.4 0.0
06/12:00pm 20.2 17.0 11.9 59 4.7 E 20 32 11 17 1020.3 1017.6 0.0
06/11:30am 20.1 17.0 12.1 60 4.6 ESE 20 28 11 15 1020.4 1017.7 0.0
06/11:00am 19.9 15.3 11.1 57 5.0 E 26 39 14 21 1020.6 1017.9 0.0
06/10:30am 19.4 15.1 11.9 62 4.3 E 26 35 14 19 1020.7 1018.0 0.0
06/10:00am 18.9 15.3 11.7 63 4.1 ESE 22 32 12 17 1020.8 1018.1 0.0
06/09:30am 18.1 13.6 11.4 65 3.8 ESE 26 35 14 19 1020.8 1018.1 0.0
06/09:00am 17.6 13.5 11.6 68 3.4 SE 24 32 13 17 1020.7 1018.0 0.0
06/08:30am 16.4 12.5 12.2 76 2.4 ESE 24 33 13 18 1020.6 1017.9 0.0
06/08:00am 15.4 12.9 12.3 82 1.7 SE 17 24 9 13 1020.6 1017.9 0.0
06/07:30am 14.3 13.3 12.3 88 1.1 ESE 9 11 5 6 1020.5 1017.8 0.0
06/07:00am 12.4 11.3 10.8 90 0.9 ESE 7 9 4 5 1020.2 1017.5 0.0
06/06:30am 11.9 9.9 10.1 89 1.0 ESE 11 13 6 7 1020.0 1017.3 0.0
06/06:00am 12.8 10.3 10.9 88 1.0 ESE 15 20 8 11 1019.6 1016.9 0.0
06/05:30am 12.5 10.2 10.6 88 1.0 ESE 13 15 7 8 1019.5 1016.8 0.0
06/05:00am 13.0 11.2 10.7 86 1.2 SE 11 15 6 8 1019.7 1017.0 0.0
06/04:30am 13.6 11.1 11.0 84 1.4 ESE 15 19 8 10 1019.6 1016.9 0.0
06/04:00am 13.7 10.9 11.2 85 1.4 ESE 17 20 9 11 1019.9 1017.1 0.0
06/03:30am 13.5 11.0 11.2 86 1.3 ESE 15 19 8 10 1020.0 1017.3 0.0
06/03:00am 14.0 12.3 11.3 84 1.5 ESE 11 15 6 8 1020.2 1017.5 0.0
06/02:30am 14.1 12.5 11.4 84 1.5 E 11 15 6 8 1020.5 1017.8 0.0
06/02:00am 14.3 11.4 11.1 81 1.7 ESE 17 24 9 13 1020.5 1017.8 0.0
06/01:30am 14.9 12.6 11.7 81 1.8 E 15 22 8 12 1020.8 1018.1 0.0
06/01:00am 15.0 11.4 11.8 81 1.8 ESE 22 30 12 16 1020.9 1018.2 0.0
06/12:44am 15.0 12.4 12.0 82 1.7 E 17 24 9 13 1021.1 1018.4 0.0
06/12:30am 15.0 12.0 12.0 82 1.7 E 19 28 10 15 1021.1 1018.4 0.0
06/12:12am 15.0 11.9 12.3 84 1.5 ESE 20 28 11 15 1021.2 1018.5 0.0
06/12:00am 15.0 12.0 12.1 83 1.6 ESE 19 26 10 14 1021.2 1018.5 0.0
 
Date/Time
EDT
Temp
°C
App
Temp
°C
Dew
Point
Rel
Hum
%
Delta-T
°C
Wind Press
QNH
hPa
Press
MSL
hPa
Rain
since 9 am
mm
Dir
 
Spd
km/h
Gust
km/h
Spd
kts
Gust
kts
05/11:56pm 15.0 12.0 12.0 82 1.7 ESE 19 24 10 13 1021.3 1018.7 0.0
05/11:30pm 15.2 12.1 12.2 82 1.7 ESE 20 30 11 16 1021.4 1018.8 0.0
05/11:00pm 15.2 12.7 12.3 83 1.6 ESE 17 28 9 15 1021.4 1018.8 0.0
05/10:30pm 15.1 12.6 12.4 84 1.5 ESE 17 22 9 12 1021.6 1018.9 0.0
05/10:24pm 15.1 13.0 12.4 84 1.5 E 15 22 8 12 1021.6 1018.9 0.0
05/10:19pm 14.7 12.9 12.2 85 1.4 ESE 13 19 7 10 1021.6 1018.9 0.0
05/10:00pm 15.4 12.3 12.2 81 1.8 ESE 20 30 11 16 1021.6 1018.9 0.0
05/09:30pm 15.6 12.7 12.4 81 1.8 ESE 19 26 10 14 1021.3 1018.7 0.0
05/09:28pm 15.5 12.4 12.3 81 1.8 ESE 20 28 11 15 1021.3 1018.7 0.0
05/09:00pm 15.7 12.2 12.1 79 2.0 ESE 22 33 12 18 1021.0 1018.3 0.0
05/08:30pm 15.3 12.7 11.9 80 1.9 ESE 17 24 9 13 1020.8 1018.1 0.0
05/08:00pm 15.9 11.9 11.7 76 2.3 ESE 24 35 13 19 1020.5 1017.8 0.0
05/07:30pm 17.7 14.2 12.2 70 3.1 SE 22 28 12 15 1020.3 1017.6 0.0
05/07:00pm 17.8 13.0 11.8 68 3.4 SE 28 35 15 19 1020.1 1017.4 0.0
05/06:30pm 17.0 11.5 11.9 72 2.9 SE 32 43 17 23 1019.9 1017.1 0.0
05/06:00pm 17.7 12.3 12.8 73 2.8 SSE 33 46 18 25 1019.9 1017.1 0.0
05/05:48pm 17.7 12.4 12.4 71 3.0 SE 32 46 17 25 1019.7 1017.0 0.0
05/05:30pm 20.2 15.5 11.9 59 4.8 ESE 28 39 15 21 1019.6 1016.9 0.0
05/05:00pm 18.9 13.4 12.4 66 3.7 SE 33 43 18 23 1019.6 1016.9 0.0
05/04:30pm 20.4 15.5 12.6 61 4.5 SE 30 41 16 22 1019.7 1017.0 0.0
05/04:00pm 20.0 14.9 11.8 59 4.7 SE 30 39 16 21 1019.9 1017.1 0.0
05/03:30pm 20.5 14.8 11.7 57 5.0 SE 33 46 18 25 1020.0 1017.3 0.0
05/03:00pm 21.0 15.4 10.2 50 6.0 ESE 30 43 16 23 1020.0 1017.3 0.0
05/02:30pm 20.8 15.1 11.2 54 5.5 ESE 32 43 17 23 1020.3 1017.6 0.0
05/02:14pm 20.2 15.1 10.6 54 5.4 SE 28 46 15 25 1020.3 1017.6 0.0
05/02:00pm 19.9 15.0 11.4 58 4.8 SE 28 43 15 23 1020.3 1017.6 0.0
05/01:30pm 19.2 13.6 12.0 63 4.1 SSE 33 44 18 24 1020.6 1017.9 0.0
05/01:15pm 17.9 12.1 12.6 71 3.0 SSE 35 46 19 25 1020.7 1018.0 0.0
05/01:03pm 18.7 13.6 12.0 65 3.8 SE 30 46 16 25 1020.5 1017.8 0.0
05/01:02pm 19.2 14.5 12.0 63 4.1 SE 28 46 15 25 1020.6 1017.9 0.0
05/01:00pm 19.8 15.1 10.5 55 5.2 SE 26 39 14 21 1020.5 1017.8 0.0

Other Formats:

Comma delimited format used in spreadsheet applications
http://www.bom.gov.au/fwo/IDN60801/IDN60801.95716.axf

JavaScript Object Notation format (JSON) in row-major order
http://www.bom.gov.au/fwo/IDN60801/IDN60801.95716.json